createdAt,value
2018-04-06T00:00:02.925Z,1014.48
2018-04-06T00:01:03.207Z,1014.45
2018-04-06T00:02:02.965Z,1014.42
2018-04-06T00:03:03.021Z,1014.44
2018-04-06T00:04:03.222Z,1014.44
2018-04-06T00:05:02.888Z,1014.43
2018-04-06T00:06:02.950Z,1014.43
2018-04-06T00:07:03.038Z,1014.46
2018-04-06T00:08:03.080Z,1014.52
2018-04-06T00:09:02.664Z,1014.55
2018-04-06T00:10:03.180Z,1014.55
2018-04-06T00:11:02.613Z,1014.54
2018-04-06T00:12:02.511Z,1014.57
2018-04-06T00:13:02.582Z,1014.60
2018-04-06T00:14:02.740Z,1014.61
2018-04-06T00:15:02.448Z,1014.59
2018-04-06T00:16:02.711Z,1014.57
2018-04-06T00:17:02.365Z,1014.55
2018-04-06T00:18:02.437Z,1014.55
2018-04-06T00:19:02.384Z,1014.54
2018-04-06T00:20:02.376Z,1014.50
2018-04-06T00:21:02.414Z,1014.55
2018-04-06T00:22:02.737Z,1014.54
2018-04-06T00:23:02.346Z,1014.58
2018-04-06T00:24:02.765Z,1014.55
2018-04-06T00:25:02.463Z,1014.58
2018-04-06T00:26:02.287Z,1014.58
2018-04-06T00:27:02.291Z,1014.53
2018-04-06T00:28:02.365Z,1014.56
2018-04-06T00:29:02.168Z,1014.55
2018-04-06T00:30:02.138Z,1014.54
2018-04-06T00:31:01.878Z,1014.53
2018-04-06T00:32:02.000Z,1014.51
2018-04-06T00:33:02.056Z,1014.54
2018-04-06T00:34:02.687Z,1014.60
2018-04-06T00:36:03.327Z,1014.62
2018-04-06T00:37:03.522Z,1014.61
2018-04-06T00:38:02.003Z,1014.63
2018-04-06T00:39:02.127Z,1014.60
2018-04-06T00:40:02.080Z,1014.60
2018-04-06T00:41:02.254Z,1014.59
2018-04-06T00:42:01.822Z,1014.60
2018-04-06T00:43:02.186Z,1014.64
2018-04-06T00:44:01.510Z,1014.63
2018-04-06T00:45:01.866Z,1014.61
2018-04-06T00:46:01.458Z,1014.61
2018-04-06T00:47:01.458Z,1014.62
2018-04-06T00:48:01.763Z,1014.64
2018-04-06T00:49:01.446Z,1014.65
2018-04-06T00:50:01.367Z,1014.68
2018-04-06T00:51:01.423Z,1014.70
2018-04-06T00:52:01.333Z,1014.70
2018-04-06T00:53:01.289Z,1014.69
2018-04-06T00:54:01.489Z,1014.71
2018-04-06T00:55:01.918Z,1014.78
2018-04-06T00:56:01.467Z,1014.84
2018-04-06T00:57:01.205Z,1014.80
2018-04-06T00:58:01.229Z,1014.79
2018-04-06T00:59:01.400Z,1014.79
2018-04-06T01:00:01.315Z,1014.79
2018-04-06T01:01:01.156Z,1014.74
2018-04-06T01:02:01.381Z,1014.70
2018-04-06T01:03:01.401Z,1014.73
2018-04-06T01:04:01.574Z,1014.72
2018-04-06T01:05:01.066Z,1014.75
2018-04-06T01:06:01.051Z,1014.76
2018-04-06T01:07:01.494Z,1014.72
2018-04-06T01:08:01.074Z,1014.71
2018-04-06T01:09:01.216Z,1014.77
2018-04-06T01:10:00.961Z,1014.81
2018-04-06T01:11:00.885Z,1014.80
2018-04-06T01:12:00.847Z,1014.80
2018-04-06T01:13:00.878Z,1014.79
2018-04-06T01:14:00.803Z,1014.82
2018-04-06T01:15:00.962Z,1014.85
2018-04-06T01:16:01.059Z,1014.84
2018-04-06T01:17:00.732Z,1014.79
2018-04-06T01:18:00.709Z,1014.83
2018-04-06T01:19:00.749Z,1014.82
2018-04-06T01:20:00.672Z,1014.82
2018-04-06T01:21:01.637Z,1014.82
2018-04-06T01:22:00.612Z,1014.81
2018-04-06T01:23:00.899Z,1014.85
2018-04-06T01:24:00.572Z,1014.82
2018-04-06T01:25:00.598Z,1014.84
2018-04-06T01:26:00.564Z,1014.78
2018-04-06T01:27:00.495Z,1014.79
2018-04-06T01:28:00.468Z,1014.88
2018-04-06T01:29:00.757Z,1014.87
2018-04-06T01:30:00.466Z,1014.87
2018-04-06T01:31:00.446Z,1014.84
2018-04-06T01:32:00.372Z,1014.87
2018-04-06T01:33:00.360Z,1014.87
2018-04-06T01:34:00.424Z,1014.85
2018-04-06T01:35:00.711Z,1014.94
2018-04-06T01:36:05.322Z,1014.94
2018-04-06T01:37:00.414Z,1014.94
2018-04-06T01:38:00.239Z,1014.88
2018-04-06T01:39:00.208Z,1014.92
2018-04-06T01:40:00.295Z,1014.91
2018-04-06T01:41:01.492Z,1014.95
2018-04-06T01:42:00.137Z,1014.94
2018-04-06T01:43:00.166Z,1014.94
2018-04-06T01:44:00.374Z,1014.96
2018-04-06T01:45:00.158Z,1014.97
2018-04-06T01:46:00.486Z,1014.98
2018-04-06T01:47:00.327Z,1014.99
2018-04-06T01:47:59.987Z,1015.00
2018-04-06T01:49:00.129Z,1015.04
2018-04-06T01:49:59.946Z,1015.00
2018-04-06T01:51:00.028Z,1015.07
2018-04-06T01:51:59.907Z,1015.04
2018-04-06T01:53:00.212Z,1015.01
2018-04-06T01:53:59.861Z,1015.05
2018-04-06T01:54:59.879Z,1015.05
2018-04-06T01:55:59.802Z,1015.05
2018-04-06T01:56:59.864Z,1015.13
2018-04-06T01:57:59.851Z,1015.15
2018-04-06T01:59:00.086Z,1015.13
2018-04-06T01:59:59.760Z,1015.14
2018-04-06T02:00:59.733Z,1015.13
2018-04-06T02:01:59.658Z,1015.16
2018-04-06T02:02:59.857Z,1015.19
2018-04-06T02:03:59.904Z,1015.22
2018-04-06T02:05:00.223Z,1015.28
2018-04-06T02:06:00.057Z,1015.25
2018-04-06T02:06:59.650Z,1015.26
2018-04-06T02:07:59.516Z,1015.27
2018-04-06T02:08:59.502Z,1015.31
2018-04-06T02:09:59.467Z,1015.24
2018-04-06T02:10:59.627Z,1015.29
2018-04-06T02:13:59.743Z,1015.30
2018-04-06T02:14:59.357Z,1015.31
2018-04-06T02:15:59.337Z,1015.30
2018-04-06T02:16:59.362Z,1015.33
2018-04-06T02:17:59.289Z,1015.33
2018-04-06T02:18:59.414Z,1015.34
2018-04-06T02:19:59.290Z,1015.35
2018-04-06T02:20:59.615Z,1015.35
2018-04-06T02:21:59.231Z,1015.34
2018-04-06T02:22:59.349Z,1015.33
2018-04-06T02:23:59.133Z,1015.33
2018-04-06T02:24:59.173Z,1015.34
2018-04-06T02:25:59.144Z,1015.32
2018-04-06T02:26:59.082Z,1015.29
2018-04-06T02:27:59.352Z,1015.30
2018-04-06T02:29:59.173Z,1015.29
2018-04-06T02:30:58.974Z,1015.34
2018-04-06T02:31:59.003Z,1015.29
2018-04-06T02:32:59.011Z,1015.32
2018-04-06T02:33:58.910Z,1015.36
2018-04-06T02:34:59.240Z,1015.35
2018-04-06T02:35:58.963Z,1015.38
2018-04-06T02:36:58.830Z,1015.39
2018-04-06T02:37:58.861Z,1015.38
2018-04-06T02:38:58.796Z,1015.37
2018-04-06T02:39:58.769Z,1015.34
2018-04-06T02:40:58.736Z,1015.39
2018-04-06T02:41:59.015Z,1015.37
2018-04-06T02:42:58.698Z,1015.42
2018-04-06T02:43:58.717Z,1015.40
2018-04-06T02:44:58.641Z,1015.37
2018-04-06T02:45:58.970Z,1015.40
2018-04-06T02:46:58.599Z,1015.37
2018-04-06T02:47:58.872Z,1015.41
2018-04-06T02:48:58.552Z,1015.42
2018-04-06T02:49:58.670Z,1015.44
2018-04-06T02:50:58.500Z,1015.45
2018-04-06T02:52:58.441Z,1015.43
2018-04-06T02:53:58.429Z,1015.46
2018-04-06T02:54:58.702Z,1015.41
2018-04-06T02:55:58.482Z,1015.49
2018-04-06T02:56:58.604Z,1015.46
2018-04-06T02:57:58.434Z,1015.46
2018-04-06T02:58:58.475Z,1015.42
2018-04-06T02:59:58.396Z,1015.45
2018-04-06T03:00:58.613Z,1015.48
2018-04-06T03:01:58.281Z,1015.50
2018-04-06T03:02:58.298Z,1015.50
2018-04-06T03:03:58.183Z,1015.53
2018-04-06T03:04:58.360Z,1015.54
2018-04-06T03:05:58.140Z,1015.53
2018-04-06T03:06:58.415Z,1015.51
2018-04-06T03:07:58.204Z,1015.52
2018-04-06T03:08:58.075Z,1015.52
2018-04-06T03:09:58.046Z,1015.52
2018-04-06T03:10:58.025Z,1015.60
2018-04-06T03:11:57.992Z,1015.55
2018-04-06T03:12:58.294Z,1015.55
2018-04-06T03:13:57.998Z,1015.57
2018-04-06T03:14:57.959Z,1015.56
2018-04-06T03:15:57.896Z,1015.62
2018-04-06T03:16:57.867Z,1015.62
2018-04-06T03:17:57.919Z,1015.60
2018-04-06T03:18:58.124Z,1015.63
2018-04-06T03:19:57.882Z,1015.62
2018-04-06T03:20:58.059Z,1015.65
2018-04-06T03:21:57.805Z,1015.69
2018-04-06T03:22:57.728Z,1015.70
2018-04-06T03:23:57.695Z,1015.71
2018-04-06T03:24:58.357Z,1015.71
2018-04-06T03:25:57.752Z,1015.69
2018-04-06T03:26:57.630Z,1015.73
2018-04-06T03:27:57.812Z,1015.69
2018-04-06T03:28:57.683Z,1015.68
2018-04-06T03:29:57.580Z,1015.70
2018-04-06T03:30:57.695Z,1015.62
2018-04-06T03:31:57.830Z,1015.66
2018-04-06T03:32:57.480Z,1015.67
2018-04-06T03:33:57.457Z,1015.69
2018-04-06T03:34:57.628Z,1015.70
2018-04-06T03:35:57.412Z,1015.65
2018-04-06T03:36:57.392Z,1015.63
2018-04-06T03:37:57.414Z,1015.62
2018-04-06T03:38:57.645Z,1015.63
2018-04-06T03:39:57.734Z,1015.63
2018-04-06T03:40:57.378Z,1015.65
2018-04-06T03:41:57.448Z,1015.67
2018-04-06T03:42:57.329Z,1015.62
2018-04-06T03:43:57.354Z,1015.63
2018-04-06T03:44:57.200Z,1015.64
2018-04-06T03:45:57.475Z,1015.62
2018-04-06T03:47:57.124Z,1015.65
2018-04-06T03:48:57.108Z,1015.63
2018-04-06T03:49:57.122Z,1015.57
2018-04-06T03:50:57.100Z,1015.62
2018-04-06T03:51:57.028Z,1015.61
2018-04-06T03:52:57.305Z,1015.58
2018-04-06T03:53:57.007Z,1015.62
2018-04-06T03:54:56.958Z,1015.65
2018-04-06T03:55:56.973Z,1015.64
2018-04-06T03:56:56.950Z,1015.61
2018-04-06T03:57:57.042Z,1015.61
2018-04-06T03:59:57.293Z,1015.61
2018-04-06T04:00:56.808Z,1015.66
2018-04-06T04:01:57.095Z,1015.66
2018-04-06T04:02:56.966Z,1015.67
2018-04-06T04:03:56.894Z,1015.65
2018-04-06T04:04:56.880Z,1015.60
2018-04-06T04:05:56.839Z,1015.62
2018-04-06T04:06:57.145Z,1015.67
2018-04-06T04:07:56.711Z,1015.68
2018-04-06T04:08:56.614Z,1015.70
2018-04-06T04:09:56.588Z,1015.70
2018-04-06T04:10:56.575Z,1015.67
2018-04-06T04:11:56.570Z,1015.70
2018-04-06T04:12:56.868Z,1015.70
2018-04-06T04:13:56.596Z,1015.71
2018-04-06T04:14:56.543Z,1015.69
2018-04-06T04:15:56.440Z,1015.70
2018-04-06T04:16:56.421Z,1015.67
2018-04-06T04:17:56.446Z,1015.67
2018-04-06T04:18:56.747Z,1015.64
2018-04-06T04:19:56.398Z,1015.62
2018-04-06T04:20:56.321Z,1015.64
2018-04-06T04:21:56.295Z,1015.68
2018-04-06T04:22:56.301Z,1015.65
2018-04-06T04:23:56.254Z,1015.67
2018-04-06T04:24:56.514Z,1015.67
2018-04-06T04:25:56.251Z,1015.67
2018-04-06T04:26:56.178Z,1015.70
2018-04-06T04:27:56.159Z,1015.72
2018-04-06T04:28:56.123Z,1015.70
2018-04-06T04:29:56.114Z,1015.72
2018-04-06T04:30:56.378Z,1015.70
2018-04-06T04:31:56.248Z,1015.67
2018-04-06T04:32:56.083Z,1015.69
2018-04-06T04:33:56.053Z,1015.67
2018-04-06T04:34:55.988Z,1015.69
2018-04-06T04:35:56.129Z,1015.70
2018-04-06T04:36:56.368Z,1015.71
2018-04-06T04:38:55.973Z,1015.74
2018-04-06T04:39:56.064Z,1015.71
2018-04-06T04:41:56.024Z,1015.75
2018-04-06T04:42:55.862Z,1015.76
2018-04-06T04:44:56.217Z,1015.80
2018-04-06T04:45:55.759Z,1015.77
2018-04-06T04:46:56.409Z,1015.78
2018-04-06T04:47:55.741Z,1015.74
2018-04-06T04:48:55.836Z,1015.78
2018-04-06T04:49:55.694Z,1015.81
2018-04-06T04:50:55.644Z,1015.78
2018-04-06T04:51:55.923Z,1015.78
2018-04-06T04:54:55.578Z,1015.78
2018-04-06T04:55:55.582Z,1015.80
2018-04-06T04:56:57.115Z,1015.81
2018-04-06T04:57:55.413Z,1015.82
2018-04-06T04:58:55.693Z,1015.81
2018-04-06T04:59:55.372Z,1015.86
2018-04-06T05:00:55.355Z,1015.86
2018-04-06T05:01:55.428Z,1015.83
2018-04-06T05:02:55.353Z,1015.88
2018-04-06T05:03:55.317Z,1015.84
2018-04-06T05:04:55.305Z,1015.90
2018-04-06T05:05:55.523Z,1015.94
2018-04-06T05:06:55.191Z,1015.97
2018-04-06T05:07:55.172Z,1015.92
2018-04-06T05:08:55.191Z,1015.92
2018-04-06T05:09:55.168Z,1015.91
2018-04-06T05:10:55.138Z,1015.94
2018-04-06T05:11:55.253Z,1015.96
2018-04-06T05:12:55.052Z,1016.00
2018-04-06T05:13:55.028Z,1016.02
2018-04-06T05:14:55.052Z,1016.00
2018-04-06T05:15:54.973Z,1016.02
2018-04-06T05:16:55.114Z,1015.99
2018-04-06T05:17:54.929Z,1016.02
2018-04-06T05:18:55.202Z,1015.99
2018-04-06T05:19:55.328Z,1016.06
2018-04-06T05:20:55.150Z,1016.09
2018-04-06T05:21:54.849Z,1016.08
2018-04-06T05:22:54.817Z,1016.06
2018-04-06T05:23:54.781Z,1016.09
2018-04-06T05:24:54.760Z,1016.17
2018-04-06T05:25:55.117Z,1016.12
2018-04-06T05:26:54.759Z,1016.19
2018-04-06T05:27:54.695Z,1016.17
2018-04-06T05:28:54.652Z,1016.24
2018-04-06T05:29:54.631Z,1016.22
2018-04-06T05:30:54.602Z,1016.24
2018-04-06T05:31:54.582Z,1016.28
2018-04-06T05:32:54.616Z,1016.28
2018-04-06T05:33:54.802Z,1016.29
2018-04-06T05:34:54.581Z,1016.27
2018-04-06T05:35:54.498Z,1016.27
2018-04-06T05:36:54.479Z,1016.26
2018-04-06T05:37:54.791Z,1016.24
2018-04-06T05:38:55.102Z,1016.32
2018-04-06T05:39:54.394Z,1016.32
2018-04-06T05:40:54.365Z,1016.38
2018-04-06T05:41:54.364Z,1016.37
2018-04-06T05:42:54.323Z,1016.37
2018-04-06T05:43:54.308Z,1016.41
2018-04-06T05:44:54.626Z,1016.36
2018-04-06T05:45:54.253Z,1016.37
2018-04-06T05:46:54.220Z,1016.42
2018-04-06T05:47:54.194Z,1016.41
2018-04-06T05:48:54.231Z,1016.41
2018-04-06T05:49:54.156Z,1016.47
2018-04-06T05:50:54.485Z,1016.48
2018-04-06T05:51:54.107Z,1016.48
2018-04-06T05:52:54.084Z,1016.53
2018-04-06T05:53:54.828Z,1016.55
2018-04-06T05:55:54.161Z,1016.55
2018-04-06T05:56:54.179Z,1016.56
2018-04-06T05:57:54.401Z,1016.55
2018-04-06T05:58:54.256Z,1016.54
2018-04-06T05:59:54.087Z,1016.56
2018-04-06T06:00:54.212Z,1016.56
2018-04-06T06:01:54.420Z,1016.59
2018-04-06T06:02:53.892Z,1016.57
2018-04-06T06:03:54.129Z,1016.58
2018-04-06T06:04:53.801Z,1016.61
2018-04-06T06:05:53.778Z,1016.62
2018-04-06T06:06:53.752Z,1016.60
2018-04-06T06:07:54.187Z,1016.65
2018-04-06T06:08:54.001Z,1016.65
2018-04-06T06:09:54.177Z,1016.64
2018-04-06T06:10:54.021Z,1016.70
2018-04-06T06:11:54.038Z,1016.61
2018-04-06T06:12:53.995Z,1016.68
2018-04-06T06:13:54.168Z,1016.63
2018-04-06T06:14:54.171Z,1016.60
2018-04-06T06:15:53.677Z,1016.62
2018-04-06T06:16:54.084Z,1016.61
2018-04-06T06:17:53.660Z,1016.63
2018-04-06T06:18:53.672Z,1016.67
2018-04-06T06:19:53.455Z,1016.71
2018-04-06T06:20:53.483Z,1016.74
2018-04-06T06:21:53.485Z,1016.75
2018-04-06T06:22:53.689Z,1016.76
2018-04-06T06:23:53.366Z,1016.79
2018-04-06T06:24:53.347Z,1016.81
2018-04-06T06:26:53.346Z,1016.84
2018-04-06T06:27:53.271Z,1016.81
2018-04-06T06:28:53.248Z,1016.85
2018-04-06T06:29:53.533Z,1016.84
2018-04-06T06:30:53.566Z,1016.84
2018-04-06T06:31:53.378Z,1016.89
2018-04-06T06:32:53.309Z,1016.88
2018-04-06T06:33:53.482Z,1016.93
2018-04-06T06:34:53.249Z,1016.90
2018-04-06T06:35:53.545Z,1016.87
2018-04-06T06:36:53.280Z,1016.87
2018-04-06T06:37:53.257Z,1016.92
2018-04-06T06:38:53.112Z,1016.94
2018-04-06T06:39:52.997Z,1016.95
2018-04-06T06:40:53.048Z,1016.97
2018-04-06T06:41:53.222Z,1016.95
2018-04-06T06:42:53.256Z,1016.97
2018-04-06T06:43:52.914Z,1016.95
2018-04-06T06:44:52.949Z,1016.95
2018-04-06T06:45:52.873Z,1016.96
2018-04-06T06:46:52.851Z,1016.99
2018-04-06T06:47:52.835Z,1016.95
2018-04-06T06:48:52.825Z,1016.93
2018-04-06T06:49:53.085Z,1016.95
2018-04-06T06:50:52.812Z,1016.97
2018-04-06T06:51:52.795Z,1017.00
2018-04-06T06:52:52.730Z,1017.02
2018-04-06T06:53:52.706Z,1017.01
2018-04-06T06:54:52.678Z,1016.99
2018-04-06T06:55:52.664Z,1017.00
2018-04-06T06:56:52.989Z,1016.99
2018-04-06T06:57:52.616Z,1016.97
2018-04-06T06:58:52.595Z,1016.97
2018-04-06T06:59:52.570Z,1016.94
2018-04-06T07:00:52.576Z,1016.93
2018-04-06T07:01:52.528Z,1016.92
2018-04-06T07:02:52.855Z,1016.89
2018-04-06T07:03:52.487Z,1016.87
2018-04-06T07:04:52.466Z,1016.86
2018-04-06T07:05:52.435Z,1016.89
2018-04-06T07:06:52.478Z,1016.93
2018-04-06T07:07:52.436Z,1016.89
2018-04-06T07:08:52.793Z,1016.90
2018-04-06T07:09:52.412Z,1016.92
2018-04-06T07:10:52.374Z,1016.93
2018-04-06T07:11:52.313Z,1016.89
2018-04-06T07:12:52.317Z,1016.88
2018-04-06T07:13:52.462Z,1016.91
2018-04-06T07:14:52.319Z,1016.89
2018-04-06T07:15:52.740Z,1016.87
2018-04-06T07:16:52.405Z,1016.86
2018-04-06T07:17:52.252Z,1016.88
2018-04-06T07:18:52.175Z,1016.85
2018-04-06T07:19:52.326Z,1016.84
2018-04-06T07:20:52.435Z,1016.83
2018-04-06T07:21:52.732Z,1016.84
2018-04-06T07:22:52.328Z,1016.85
2018-04-06T07:23:52.384Z,1017.42
2018-04-06T07:24:52.105Z,1018.30
2018-04-06T07:25:52.157Z,1018.50
2018-04-06T07:26:52.113Z,1018.57
2018-04-06T07:27:52.302Z,1018.47
2018-04-06T07:28:51.978Z,1018.33
2018-04-06T07:29:52.001Z,1018.31
2018-04-06T07:31:51.995Z,1018.39
2018-04-06T07:32:51.956Z,1018.37
2018-04-06T07:33:51.876Z,1018.43
2018-04-06T07:34:52.208Z,1018.38
2018-04-06T07:35:51.842Z,1018.42
2018-04-06T07:36:51.812Z,1018.43
2018-04-06T07:37:51.948Z,1018.42
2018-04-06T07:38:51.833Z,1018.47
2018-04-06T07:39:51.901Z,1018.50
2018-04-06T07:40:52.231Z,1018.51
2018-04-06T07:41:51.721Z,1018.57
2018-04-06T07:42:52.032Z,1018.61
2018-04-06T07:43:51.683Z,1018.59
2018-04-06T07:44:51.709Z,1018.61
2018-04-06T07:45:51.651Z,1018.60
2018-04-06T07:46:51.941Z,1018.53
2018-04-06T07:47:51.619Z,1018.57
2018-04-06T07:48:51.598Z,1018.64
2018-04-06T07:49:51.570Z,1018.73
2018-04-06T07:50:51.606Z,1018.72
2018-04-06T07:51:51.548Z,1018.70
2018-04-06T07:52:52.105Z,1018.73
2018-04-06T07:53:51.511Z,1018.79
2018-04-06T07:54:51.486Z,1018.80
2018-04-06T07:55:51.776Z,1018.77
2018-04-06T07:56:51.677Z,1018.74
2018-04-06T07:57:51.820Z,1018.84
2018-04-06T07:58:51.722Z,1018.90
2018-04-06T07:59:51.410Z,1018.93
2018-04-06T08:00:51.473Z,1018.96
2018-04-06T08:01:51.469Z,1019.05
2018-04-06T08:02:51.422Z,1019.20
2018-04-06T08:03:51.355Z,1019.83
2018-04-06T08:04:51.334Z,1021.69
2018-04-06T08:05:51.625Z,1023.33
2018-04-06T08:06:51.302Z,1022.64
2018-04-06T08:07:51.286Z,1021.47
2018-04-06T08:08:51.324Z,1021.09
2018-04-06T08:09:51.260Z,1021.20
2018-04-06T08:10:51.244Z,1021.14
2018-04-06T08:11:51.525Z,1020.44
2018-04-06T08:12:51.220Z,1020.80
2018-04-06T08:13:51.216Z,1020.88
2018-04-06T08:14:51.401Z,1020.17
2018-04-06T08:15:51.171Z,1020.03
2018-04-06T08:16:51.158Z,1019.54
2018-04-06T08:17:51.138Z,1019.29
2018-04-06T08:18:51.434Z,1019.36
2018-04-06T08:19:51.520Z,1019.22
2018-04-06T08:20:51.149Z,1019.03
2018-04-06T08:21:51.086Z,1019.24
2018-04-06T08:22:51.354Z,1019.64
2018-04-06T08:23:51.203Z,1019.90
2018-04-06T08:24:51.455Z,1019.93
2018-04-06T08:25:51.228Z,1019.61
2018-04-06T08:26:51.366Z,1019.26
2018-04-06T08:27:51.005Z,1019.07
2018-04-06T08:28:51.438Z,1018.87
2018-04-06T08:29:51.021Z,1018.76
2018-04-06T08:30:51.265Z,1018.77
2018-04-06T08:31:51.136Z,1018.84
2018-04-06T08:32:50.994Z,1018.71
2018-04-06T08:33:51.064Z,1018.62
2018-04-06T08:34:50.930Z,1018.53
2018-04-06T08:35:51.114Z,1018.56
2018-04-06T08:36:51.150Z,1018.42
2018-04-06T08:37:50.891Z,1018.38
2018-04-06T08:38:51.204Z,1018.30
2018-04-06T08:39:51.055Z,1018.30
2018-04-06T08:40:50.856Z,1018.22
2018-04-06T08:41:50.854Z,1018.12
2018-04-06T08:42:51.127Z,1018.04
2018-04-06T08:43:50.813Z,1017.97
2018-04-06T08:44:50.851Z,1017.97
2018-04-06T08:45:50.790Z,1017.97
2018-04-06T08:46:51.076Z,1017.99
2018-04-06T08:47:50.854Z,1018.12
2018-04-06T08:48:51.118Z,1018.16
2018-04-06T08:49:50.963Z,1018.06
2018-04-06T08:50:50.787Z,1017.92
2018-04-06T08:51:50.851Z,1017.94
2018-04-06T08:52:50.774Z,1017.91
2018-04-06T08:53:50.703Z,1017.94
2018-04-06T08:54:50.995Z,1017.95
2018-04-06T08:55:50.673Z,1017.96
2018-04-06T08:56:50.924Z,1017.94
2018-04-06T08:57:50.660Z,1017.98
2018-04-06T08:58:50.665Z,1018.01
2018-04-06T08:59:50.635Z,1017.97
2018-04-06T09:00:50.930Z,1017.93
2018-04-06T09:01:50.618Z,1017.99
2018-04-06T09:02:50.740Z,1017.94
2018-04-06T09:03:50.681Z,1017.90
2018-04-06T09:04:50.672Z,1017.99
2018-04-06T09:05:50.580Z,1017.96
2018-04-06T09:06:50.869Z,1017.89
2018-04-06T09:07:50.638Z,1017.92
2018-04-06T09:08:50.596Z,1017.90
2018-04-06T09:09:50.546Z,1017.92
2018-04-06T09:10:50.580Z,1017.91
2018-04-06T09:11:50.673Z,1017.91
2018-04-06T09:12:50.810Z,1017.93
2018-04-06T09:13:50.498Z,1017.95
2018-04-06T09:14:50.937Z,1017.99
2018-04-06T09:15:50.803Z,1018.02
2018-04-06T09:16:50.787Z,1018.02
2018-04-06T09:17:50.768Z,1017.99
2018-04-06T09:18:50.450Z,1017.99
2018-04-06T09:19:50.978Z,1017.99
2018-04-06T09:20:50.495Z,1017.95
2018-04-06T09:21:50.443Z,1017.99
2018-04-06T09:22:50.518Z,1018.04
2018-04-06T09:23:50.468Z,1018.10
2018-04-06T09:24:50.412Z,1018.12
2018-04-06T09:25:50.385Z,1018.12
2018-04-06T09:26:50.727Z,1018.20
2018-04-06T09:27:50.374Z,1018.19
2018-04-06T09:28:50.355Z,1018.22
2018-04-06T09:29:50.346Z,1018.17
2018-04-06T09:30:50.343Z,1018.16
2018-04-06T09:31:50.384Z,1018.18
2018-04-06T09:32:50.372Z,1018.19
2018-04-06T09:33:50.612Z,1018.23
2018-04-06T09:34:50.302Z,1018.22
2018-04-06T09:35:50.313Z,1018.28
2018-04-06T09:36:50.297Z,1018.27
2018-04-06T09:37:50.290Z,1018.31
2018-04-06T09:38:50.335Z,1018.31
2018-04-06T09:39:50.294Z,1018.35
2018-04-06T09:40:50.851Z,1018.34
2018-04-06T09:41:50.449Z,1018.36
2018-04-06T09:42:50.256Z,1018.35
2018-04-06T09:43:50.538Z,1018.37
2018-04-06T09:44:50.590Z,1018.36
2018-04-06T09:45:50.439Z,1018.35
2018-04-06T09:46:50.312Z,1018.33
2018-04-06T09:47:50.612Z,1018.35
2018-04-06T09:48:50.395Z,1018.34
2018-04-06T09:49:50.215Z,1018.42
2018-04-06T09:50:50.238Z,1018.43
2018-04-06T09:51:50.176Z,1018.47
2018-04-06T09:52:50.169Z,1018.39
2018-04-06T09:53:50.487Z,1018.46
2018-04-06T09:54:50.173Z,1018.39
2018-04-06T09:55:50.155Z,1018.38
2018-04-06T09:56:50.191Z,1018.35
2018-04-06T09:57:50.300Z,1018.29
2018-04-06T09:58:50.282Z,1018.32
2018-04-06T09:59:50.432Z,1018.41
2018-04-06T10:00:50.268Z,1018.37
2018-04-06T10:01:50.201Z,1018.35
2018-04-06T10:02:50.155Z,1018.34
2018-04-06T10:03:50.096Z,1018.32
2018-04-06T10:04:50.090Z,1018.28
2018-04-06T10:05:50.384Z,1018.26
2018-04-06T10:06:50.104Z,1018.24
2018-04-06T10:07:50.076Z,1018.27
2018-04-06T10:08:50.237Z,1018.24
2018-04-06T10:09:50.058Z,1018.23
2018-04-06T10:10:50.123Z,1018.26
2018-04-06T10:11:50.412Z,1018.26
2018-04-06T10:12:50.047Z,1018.30
2018-04-06T10:13:50.037Z,1018.32
2018-04-06T10:14:50.199Z,1018.32
2018-04-06T10:15:50.023Z,1018.31
2018-04-06T10:16:50.022Z,1018.29
2018-04-06T10:17:50.305Z,1018.26
2018-04-06T10:18:50.030Z,1018.25
2018-04-06T10:19:49.997Z,1018.32
2018-04-06T10:20:50.047Z,1018.33
2018-04-06T10:21:50.199Z,1018.33
2018-04-06T10:22:49.979Z,1018.27
2018-04-06T10:23:50.287Z,1018.25
2018-04-06T10:24:50.070Z,1018.21
2018-04-06T10:25:50.078Z,1018.21
2018-04-06T10:26:50.027Z,1018.26
2018-04-06T10:27:49.965Z,1018.22
2018-04-06T10:28:49.962Z,1018.16
2018-04-06T10:29:50.262Z,1018.08
2018-04-06T10:30:49.955Z,1018.04
2018-04-06T10:31:49.948Z,1018.03
2018-04-06T10:32:49.983Z,1018.00
2018-04-06T10:33:49.932Z,1017.99
2018-04-06T10:34:49.964Z,1017.92
2018-04-06T10:35:49.916Z,1017.94
2018-04-06T10:36:50.207Z,1017.93
2018-04-06T10:37:50.122Z,1017.97
2018-04-06T10:38:50.016Z,1017.92
2018-04-06T10:39:50.112Z,1017.95
2018-04-06T10:40:49.891Z,1017.90
2018-04-06T10:41:49.911Z,1017.82
2018-04-06T10:42:50.229Z,1017.79
2018-04-06T10:43:49.891Z,1017.82
2018-04-06T10:44:50.172Z,1017.74
2018-04-06T10:45:49.880Z,1017.69
2018-04-06T10:46:50.464Z,1017.66
2018-04-06T10:47:50.386Z,1017.66
2018-04-06T10:48:50.194Z,1017.64
2018-04-06T10:49:49.858Z,1017.59
2018-04-06T10:50:49.915Z,1017.71
2018-04-06T10:51:49.863Z,1017.70
2018-04-06T10:52:50.202Z,1017.70
2018-04-06T10:53:50.227Z,1017.68
2018-04-06T10:54:50.244Z,1017.65
2018-04-06T10:55:49.837Z,1017.68
2018-04-06T10:56:49.896Z,1017.62
2018-04-06T10:57:49.841Z,1017.69
2018-04-06T10:58:49.833Z,1017.68
2018-04-06T10:59:49.837Z,1017.70
2018-04-06T11:00:50.116Z,1017.69
2018-04-06T11:01:49.809Z,1017.65
2018-04-06T11:02:49.864Z,1017.64
2018-04-06T11:03:49.875Z,1017.68
2018-04-06T11:04:50.135Z,1017.60
2018-04-06T11:05:49.809Z,1017.64
2018-04-06T11:06:50.094Z,1017.61
2018-04-06T11:07:49.792Z,1017.62
2018-04-06T11:08:49.836Z,1017.62
2018-04-06T11:09:49.785Z,1017.59
2018-04-06T11:10:49.783Z,1017.61
2018-04-06T11:11:49.764Z,1017.58
2018-04-06T11:12:50.066Z,1017.62
2018-04-06T11:13:49.772Z,1017.67
2018-04-06T11:14:49.933Z,1017.66
2018-04-06T11:15:49.787Z,1017.65
2018-04-06T11:17:49.742Z,1017.68
2018-04-06T11:18:49.881Z,1017.60
2018-04-06T11:19:50.001Z,1017.60
2018-04-06T11:20:49.817Z,1017.58
2018-04-06T11:21:49.740Z,1017.60
2018-04-06T11:22:49.742Z,1017.60
2018-04-06T11:23:49.735Z,1017.58
2018-04-06T11:24:49.776Z,1017.61
2018-04-06T11:25:50.041Z,1017.59
2018-04-06T11:26:49.770Z,1017.60
2018-04-06T11:28:01.261Z,1017.63
2018-04-06T11:28:49.708Z,1017.69
2018-04-06T11:29:49.928Z,1017.67
2018-04-06T11:30:49.975Z,1017.64
2018-04-06T11:31:50.295Z,1017.67
2018-04-06T11:32:50.158Z,1017.64
2018-04-06T11:33:49.704Z,1017.63
2018-04-06T11:34:49.802Z,1017.68
2018-04-06T11:35:49.698Z,1017.67
2018-04-06T11:36:49.694Z,1017.67
2018-04-06T11:37:49.696Z,1017.71
2018-04-06T11:38:49.743Z,1017.68
2018-04-06T11:39:49.987Z,1017.71
2018-04-06T11:40:49.868Z,1017.68
2018-04-06T11:41:49.680Z,1017.69
2018-04-06T11:42:49.670Z,1017.69
2018-04-06T11:43:49.680Z,1017.70
2018-04-06T11:44:49.738Z,1017.68
2018-04-06T11:45:50.017Z,1017.66
2018-04-06T11:46:49.669Z,1017.60
2018-04-06T11:47:49.668Z,1017.61
2018-04-06T11:48:49.673Z,1017.56
2018-04-06T11:49:49.690Z,1017.53
2018-04-06T11:50:49.720Z,1017.54
2018-04-06T11:51:49.962Z,1017.53
2018-04-06T11:52:49.690Z,1017.56
2018-04-06T11:53:49.668Z,1017.50
2018-04-06T11:54:49.659Z,1017.50
2018-04-06T11:55:49.654Z,1017.43
2018-04-06T11:56:49.703Z,1017.44
2018-04-06T11:57:49.653Z,1017.47
2018-04-06T11:58:50.118Z,1017.47
2018-04-06T11:59:49.702Z,1017.41
2018-04-06T12:00:49.642Z,1017.44
2018-04-06T12:01:49.706Z,1017.44
2018-04-06T12:02:49.753Z,1017.42
2018-04-06T12:03:49.745Z,1017.43
2018-04-06T12:04:49.944Z,1017.42
2018-04-06T12:05:49.638Z,1017.45
2018-04-06T12:06:49.639Z,1017.37
2018-04-06T12:07:49.683Z,1017.39
2018-04-06T12:08:49.946Z,1017.35
2018-04-06T12:09:49.638Z,1017.28
2018-04-06T12:10:49.942Z,1017.30
2018-04-06T12:11:49.664Z,1017.29
2018-04-06T12:12:49.631Z,1017.26
2018-04-06T12:13:49.724Z,1017.25
2018-04-06T12:14:49.690Z,1017.23
2018-04-06T12:15:49.712Z,1017.25
2018-04-06T12:16:49.952Z,1017.27
2018-04-06T12:17:49.631Z,1017.19
2018-04-06T12:18:49.623Z,1017.24
2018-04-06T12:19:49.621Z,1017.19
2018-04-06T12:20:49.691Z,1017.17